PABR METAR and TAF weather

Enter ICAO airport designator
Station Type Date Time Source
PABR METAR 2019/08/21 21:53 UTC NOAA

PABR 212153Z 29005KT 10SM SCT012 OVC018 07/03 A2974 RMK AO2 CIG 013 NE SLP072 T00670033


Station Type Date Time Source
PABR Decoded METAR 2019/08/21 21:53 UTC NOAA

Station name not available
Aug 21, 2019 - 05:53 PM EDT / 2019.08.21 2153 UTC
Wind: from the WNW (290 degrees) at 6 MPH (5 KT):0
Visibility: 10 mile(s):0
Sky conditions: overcast
Temperature: 44.1 F (6.7 C)
Dew Point: 37.9 F (3.3 C)
Relative Humidity: 78%
Pressure (altimeter): 29.74 in. Hg (1007 hPa)
ob: PABR 212153Z 29005KT 10SM SCT012 OVC018 07/03 A2974 RMK AO2 CIG 013 NE SLP072 T00670033
cycle: 22

Station Type Date Time Source
PABR TAF 2019/08/21 18:27 UTC NOAA

TAF PABR 211724Z 2118/2218 VRB03KT 5SM BR OVC008
FM220300 32006KT 6SM -RA BR OVC010
FM221200 35010KT P6SM OVC015

Example: see airport list